Aérodrome :
LOGIN :

S'inscrire | Disclaimer

   EN    FR    IT 

 










Légende :    VFR   VFR Marginal   IFR   IFR Intensif   IFR Très Intensif
Visi : 
Plafond : 
>= 8 km
>= 3000ft
5 à 8 km
1000 à 3000 ft
1500m à 5 km
500 à 1000 ft
800 à 1500m
200 à 500 ft
< 800m
< 200 ft
Symboles :   Orages  Brouillard  Fortes neiges  Fortes précipitations  Vent > 20 kt
SIGMETs :   Divers  Orages  Givrage  Turbulence  Onde Orograph.  Cendres Volcan.







- Altitude de l'aérodrome : 1046 ft
- Code IATA : NUE


EDDN - Nuremberg

DERNIER METAR :
  • 251750Z 30003KT 260V340 9999 -RA FEW024 OVC060 07/01 Q1008 NOSIG

METARs EXPIRÉS :
  • 251720Z 29003KT 250V330 9999 -RA FEW034 OVC060 07/02 Q1008 NOSIG
  • 251650Z 29007KT 250V340 9999 FEW036 OVC067 08/02 Q1008 NOSIG
  • 251620Z 30008KT 270V350 9999 SCT029 OVC084 08/02 Q1008 NOSIG
  • 251550Z 31005KT 260V360 9999 FEW028 SCT045 OVC090 08/02 Q1008 NOSIG
  • 251520Z 30006KT 270V340 9999 -RA FEW039 BKN100 08/03 Q1008 NOSIG

TAF TAF EDDN
Valide du 25 à 18h jusqu'au 26 à 18h UTC


251700Z 2518/2618 30007KT 9999 BKN025
BECMG 2520/2522 VRB03KT
TEMPO 2520/2604 RA BKN012
BECMG 2604/2606 01005KT RA BKN012
TEMPO 2604/2607 4000 RASN BKN008
BECMG 2609/2611 NSW BKN020
Pas de NOTAMs connus pour ce terrain.



MET'MAP, la Météo Aéronautique d'un coup d'oeil ! - Copyright ORBIFLY Décembre 2007 - Disclaimer

ORBIFLY MET'MAP TEAM :

Programmation & Développement : Alexandra Zaïnal
Conception & Développement : Baudouin d'Aumeries
Co-Programmation & Développement : Marc-Olivier Méhu
Soutien technique & logistique : Manuel Goepfert

Contact : metmap@orbifly.com




SOURCES & CREDITS :

   NOAA